CST,Max TemperatureF,Mean TemperatureF,Min TemperatureF,Max Dew PointF,MeanDew PointF,Min DewpointF,Max Humidity, Mean Humidity, Min Humidity, Max Sea Level PressureIn, Mean Sea Level PressureIn, Min Sea Level PressureIn, Max VisibilityMiles, Mean VisibilityMiles, Min VisibilityMiles, Max Wind SpeedMPH, Mean Wind SpeedMPH, Max Gust SpeedMPH,PrecipitationIn, CloudCover, Events, WindDirDegrees
2012-11-1,61,46,30,36,30,22,78,56,33,30.00,29.94,29.87,10,10,10,17,7,22,0.00,3,,263
2012-11-2,53,42,31,33,30,27,85,63,41,30.12,30.06,29.93,10,10,10,13,7,16,0.00,0,,39
2012-11-3,46,38,29,39,35,28,92,78,64,30.24,30.14,30.06,10,10,9,17,8,22,0.10,6,Rain-Thunderstorm,62
2012-11-4,48,37,25,36,31,23,92,76,60,30.29,30.24,30.19,10,9,5,8,1,13,0.00,3,,355
2012-11-5,43,41,38,37,35,33,92,84,76,30.19,30.15,30.12,10,8,5,13,5,15,0.01,8,Rain,85
2012-11-6,45,40,35,43,39,34,96,86,76,30.11,29.97,29.91,10,5,1,13,4,17,0.13,8,Rain,225
2012-11-7,47,45,42,40,39,37,89,74,59,30.21,30.06,29.92,10,10,8,15,7,18,T,8,Rain,323
2012-11-8,56,45,34,39,37,32,96,76,55,30.25,30.17,30.07,10,10,8,15,7,21,0.00,2,,181
2012-11-9,68,56,43,53,46,37,82,67,52,30.08,30.00,29.92,10,10,10,21,10,29,0.00,1,,173
2012-11-10,75,66,56,53,50,45,78,61,44,29.99,29.94,29.88,10,10,10,31,17,43,0.00,0,,175
2012-11-11,71,56,40,57,49,34,86,69,52,30.07,29.92,29.77,10,7,2,40,20,52,0.89,6,Rain,246
2012-11-12,45,39,32,34,25,19,79,60,41,30.43,30.25,30.06,10,10,9,25,14,31,T,2,Snow,271
2012-11-13,49,38,26,27,23,17,85,57,29,30.56,30.50,30.43,10,10,9,9,3,12,0.00,0,,196
2012-11-14,50,41,31,30,28,26,82,61,39,30.53,30.46,30.40,10,10,10,13,5,15,0.00,0,,136
2012-11-15,54,41,28,32,26,21,85,57,28,30.42,30.38,30.34,10,10,4,7,1,8,0.00,0,,177
2012-11-16,59,46,32,36,31,26,82,60,37,30.48,30.45,30.40,10,10,9,9,4,13,0.00,0,,142
2012-11-17,57,43,29,37,31,25,82,59,36,30.55,30.48,30.43,10,9,5,12,4,14,0.00,0,,124
2012-11-18,60,45,29,36,33,26,85,61,37,30.43,30.37,30.31,10,8,4,12,5,15,0.00,0,,135
2012-11-19,56,49,41,41,38,34,70,62,54,30.30,30.22,30.13,10,10,10,14,8,18,T,4,,174
2012-11-20,65,54,43,48,44,40,86,71,56,30.20,30.14,30.09,10,8,0,10,4,13,0.00,5,Fog,263
2012-11-21,59,51,42,49,45,39,100,84,67,30.29,30.22,30.13,10,3,0,15,6,20,0.00,3,Fog,204
2012-11-22,66,57,48,53,45,37,86,66,45,30.12,29.99,29.88,10,8,4,25,15,31,0.00,3,,200
2012-11-23,49,40,30,34,22,17,79,58,36,30.34,30.23,30.09,10,10,10,28,16,35,0.00,1,,295
2012-11-24,36,30,23,22,18,15,74,63,52,30.35,30.23,30.02,10,10,10,14,8,18,0.00,0,,245
2012-11-25,51,42,33,29,26,22,75,57,38,30.10,29.98,29.91,10,10,10,14,7,20,0.00,0,,279
2012-11-26,46,37,27,28,23,17,78,58,37,30.40,30.27,30.09,10,10,9,17,9,22,T,3,,1
2012-11-27,41,30,18,19,16,13,77,56,34,30.48,30.39,30.34,10,10,10,10,5,15,0.00,0,,267
2012-11-28,52,38,24,27,23,17,70,53,35,30.45,30.38,30.31,10,10,10,12,5,14,0.00,0,,204
2012-11-29,58,46,34,36,31,26,75,59,43,30.30,30.18,30.07,10,10,10,21,12,25,0.00,0,,172
2012-11-30,64,53,42,40,36,32,76,58,39,30.12,30.09,30.05,10,10,10,17,7,23,0.00,0,,202